createdAt,value
2023-03-06T00:00:26.308Z,11.87
2023-03-06T00:02:53.329Z,13.87
2023-03-06T00:05:19.666Z,10.97
2023-03-06T00:07:46.003Z,12.53
2023-03-06T00:10:14.515Z,9.33
2023-03-06T00:12:40.895Z,12.17
2023-03-06T00:15:08.467Z,8.93
2023-03-06T00:17:34.797Z,12.57
2023-03-06T00:20:01.693Z,16.43
2023-03-06T00:22:28.020Z,10.67
2023-03-06T00:24:54.197Z,12.07
2023-03-06T00:27:20.483Z,12.00
2023-03-06T00:29:48.344Z,15.90
2023-03-06T00:32:14.660Z,18.93
2023-03-06T00:34:41.138Z,18.23
2023-03-06T00:37:08.092Z,19.40
2023-03-06T00:39:34.396Z,19.40
2023-03-06T00:42:00.662Z,19.93
2023-03-06T00:44:27.009Z,18.67
2023-03-06T00:46:53.281Z,18.53
2023-03-06T00:49:19.517Z,17.87
2023-03-06T00:51:45.850Z,16.83
2023-03-06T00:54:12.781Z,18.07
2023-03-06T00:56:38.956Z,22.60
2023-03-06T00:59:05.291Z,22.77
2023-03-06T01:01:31.440Z,21.50
2023-03-06T01:03:57.889Z,20.20
2023-03-06T01:06:24.198Z,20.70
2023-03-06T01:08:50.394Z,20.77
2023-03-06T01:11:17.162Z,20.60
2023-03-06T01:13:43.828Z,19.27
2023-03-06T01:16:12.108Z,23.13
2023-03-06T01:18:38.296Z,22.43
2023-03-06T01:21:05.425Z,20.37
2023-03-06T01:23:31.820Z,22.90
2023-03-06T01:25:58.349Z,25.00
2023-03-06T01:28:25.374Z,19.63
2023-03-06T01:30:51.613Z,23.37
2023-03-06T01:33:18.195Z,21.43
2023-03-06T01:35:44.445Z,21.47
2023-03-06T01:38:10.779Z,25.20
2023-03-06T01:40:38.108Z,21.10
2023-03-06T01:43:12.100Z,25.30
2023-03-06T01:46:27.330Z,32.40
2023-03-06T01:48:56.825Z,27.20
2023-03-06T01:51:25.616Z,23.10
2023-03-06T01:53:52.208Z,26.07
2023-03-06T01:56:18.761Z,22.53
2023-03-06T01:58:50.870Z,26.80
2023-03-06T02:01:17.620Z,23.83
2023-03-06T02:03:45.347Z,25.13
2023-03-06T02:06:12.587Z,24.40
2023-03-06T02:08:39.250Z,25.33
2023-03-06T02:11:11.506Z,23.83
2023-03-06T02:13:38.072Z,27.03
2023-03-06T02:16:04.908Z,27.30
2023-03-06T02:18:31.225Z,24.00
2023-03-06T02:20:59.401Z,27.27
2023-03-06T02:23:32.868Z,28.00
2023-03-06T02:26:00.750Z,26.73
2023-03-06T02:28:26.874Z,27.20
2023-03-06T02:30:54.892Z,26.13
2023-03-06T02:33:23.123Z,25.70
2023-03-06T02:35:51.019Z,28.77
2023-03-06T02:38:18.535Z,27.83
2023-03-06T02:40:47.368Z,25.43
2023-03-06T02:43:15.165Z,27.50
2023-03-06T02:45:44.670Z,28.83
2023-03-06T02:48:11.287Z,25.53
2023-03-06T02:50:37.528Z,31.30
2023-03-06T02:53:03.912Z,27.57
2023-03-06T02:55:30.105Z,28.87
2023-03-06T02:57:56.259Z,26.27
2023-03-06T03:00:23.247Z,27.97
2023-03-06T03:02:49.546Z,29.87
2023-03-06T03:05:15.903Z,29.23
2023-03-06T03:07:42.498Z,27.70
2023-03-06T03:10:09.664Z,28.93
2023-03-06T03:12:35.987Z,25.87
2023-03-06T03:15:02.297Z,30.77
2023-03-06T03:17:29.201Z,33.07
2023-03-06T03:19:55.407Z,31.70
2023-03-06T03:22:21.656Z,28.53
2023-03-06T03:24:47.884Z,28.60
2023-03-06T03:27:14.495Z,27.83
2023-03-06T03:29:41.991Z,29.30
2023-03-06T03:32:08.300Z,34.17
2023-03-06T03:34:35.301Z,31.93
2023-03-06T03:37:01.501Z,29.73
2023-03-06T03:39:27.721Z,26.27
2023-03-06T03:41:53.915Z,23.37
2023-03-06T03:44:20.323Z,29.20
2023-03-06T03:46:46.484Z,26.67
2023-03-06T03:49:12.700Z,27.03
2023-03-06T03:51:39.534Z,31.80
2023-03-06T03:54:06.165Z,25.20
2023-03-06T03:56:33.006Z,25.50
2023-03-06T03:58:59.325Z,28.57
2023-03-06T04:01:26.029Z,27.10
2023-03-06T04:03:52.230Z,26.03
2023-03-06T04:06:18.798Z,26.63
2023-03-06T04:08:45.688Z,28.77
2023-03-06T04:11:11.919Z,28.00
2023-03-06T04:13:38.199Z,28.70
2023-03-06T04:16:04.775Z,28.93
2023-03-06T04:18:34.626Z,34.50
2023-03-06T04:21:00.805Z,30.87
2023-03-06T04:23:27.131Z,32.70
2023-03-06T04:25:54.134Z,27.70
2023-03-06T04:28:20.473Z,30.13
2023-03-06T04:30:47.649Z,30.70
2023-03-06T04:33:13.833Z,28.77
2023-03-06T04:35:40.025Z,29.13
2023-03-06T04:38:06.295Z,29.47
2023-03-06T04:40:33.864Z,35.67
2023-03-06T04:43:01.474Z,29.13
2023-03-06T04:45:29.435Z,29.00
2023-03-06T04:47:57.320Z,31.70
2023-03-06T04:50:28.133Z,35.73
2023-03-06T04:52:54.383Z,33.00
2023-03-06T04:55:20.751Z,37.70
2023-03-06T04:57:47.361Z,32.90
2023-03-06T05:00:16.537Z,35.40
2023-03-06T05:02:43.357Z,36.57
2023-03-06T05:05:10.389Z,36.40
2023-03-06T05:07:36.737Z,39.23
2023-03-06T05:10:03.418Z,35.87
2023-03-06T05:12:29.656Z,35.80
2023-03-06T05:14:56.131Z,41.27
2023-03-06T05:17:23.127Z,40.77
2023-03-06T05:19:49.340Z,40.60
2023-03-06T05:22:15.619Z,37.93
2023-03-06T05:24:41.833Z,40.27
2023-03-06T05:27:08.303Z,36.70
2023-03-06T05:29:34.761Z,32.83
2023-03-06T05:32:01.116Z,43.50
2023-03-06T05:34:28.085Z,40.00
2023-03-06T05:36:54.284Z,36.87
2023-03-06T05:39:20.563Z,42.40
2023-03-06T05:41:46.920Z,41.63
2023-03-06T05:44:13.124Z,40.90
2023-03-06T05:46:39.333Z,39.80
2023-03-06T05:49:05.561Z,41.77
2023-03-06T05:51:32.417Z,39.90
2023-03-06T05:54:03.462Z,38.13
2023-03-06T05:56:29.693Z,48.60
2023-03-06T05:58:56.010Z,42.80
2023-03-06T06:01:24.510Z,38.37
2023-03-06T06:03:51.115Z,43.00
2023-03-06T06:06:17.817Z,39.60
2023-03-06T06:08:44.717Z,40.97
2023-03-06T06:11:11.907Z,40.23
2023-03-06T06:13:38.593Z,39.53
2023-03-06T06:16:08.862Z,39.93
2023-03-06T06:18:35.136Z,43.57
2023-03-06T06:21:04.676Z,39.60
2023-03-06T06:23:30.888Z,39.17
2023-03-06T06:25:59.675Z,37.80
2023-03-06T06:28:26.010Z,40.20
2023-03-06T06:30:52.367Z,40.90
2023-03-06T06:33:21.587Z,37.30
2023-03-06T06:35:48.100Z,37.17
2023-03-06T06:38:14.337Z,35.33
2023-03-06T06:40:40.917Z,42.73
2023-03-06T06:43:07.807Z,33.60
2023-03-06T06:45:34.264Z,36.90
2023-03-06T06:48:00.960Z,35.70
2023-03-06T06:50:27.318Z,37.87
2023-03-06T06:52:53.532Z,34.83
2023-03-06T06:55:19.761Z,36.27
2023-03-06T06:57:46.080Z,37.57
2023-03-06T07:00:14.749Z,36.60
2023-03-06T07:02:41.115Z,36.70
2023-03-06T07:05:08.063Z,36.20
2023-03-06T07:07:35.741Z,37.23
2023-03-06T07:10:02.676Z,41.07
2023-03-06T07:12:31.609Z,38.30
2023-03-06T07:14:57.958Z,41.67
2023-03-06T07:17:24.960Z,41.43
2023-03-06T07:19:51.166Z,38.67
2023-03-06T07:22:17.382Z,42.43
2023-03-06T07:24:43.501Z,39.23
2023-03-06T07:27:09.719Z,36.60
2023-03-06T07:29:36.093Z,35.13
2023-03-06T07:32:02.441Z,37.27
2023-03-06T07:34:29.384Z,36.37
2023-03-06T07:36:55.600Z,37.30
2023-03-06T07:39:22.042Z,37.10
2023-03-06T07:41:48.192Z,34.13
2023-03-06T07:44:14.370Z,38.80
2023-03-06T07:46:40.835Z,36.10
2023-03-06T07:49:07.231Z,35.73
2023-03-06T07:51:34.047Z,37.43
2023-03-06T07:54:00.201Z,35.70
2023-03-06T07:56:26.384Z,38.87
2023-03-06T07:58:52.608Z,38.20
2023-03-06T08:01:20.874Z,35.93
2023-03-06T08:03:49.192Z,39.23
2023-03-06T08:06:17.033Z,39.43
2023-03-06T08:08:45.183Z,37.90
2023-03-06T08:11:12.905Z,37.73
2023-03-06T08:13:39.226Z,40.00
2023-03-06T08:16:06.373Z,39.37
2023-03-06T08:18:32.840Z,38.97
2023-03-06T08:21:03.269Z,39.80
2023-03-06T08:23:29.584Z,44.97
2023-03-06T08:25:57.049Z,44.30
2023-03-06T08:28:23.251Z,48.97
2023-03-06T08:30:49.539Z,46.77
2023-03-06T08:33:15.730Z,52.13
2023-03-06T08:35:41.952Z,47.47
2023-03-06T08:38:08.206Z,55.97
2023-03-06T08:40:34.364Z,52.50
2023-03-06T08:43:01.238Z,53.77
2023-03-06T08:45:27.439Z,52.40
2023-03-06T08:47:53.632Z,55.23
2023-03-06T08:50:19.767Z,57.70
2023-03-06T08:52:46.157Z,58.73
2023-03-06T08:55:14.171Z,54.60
2023-03-06T08:57:41.255Z,50.77
2023-03-06T09:00:10.314Z,55.27
2023-03-06T09:02:36.644Z,49.73
2023-03-06T09:05:04.497Z,51.80
2023-03-06T09:07:30.685Z,49.80
2023-03-06T09:09:57.151Z,50.33
2023-03-06T09:12:23.494Z,48.17
2023-03-06T09:14:49.899Z,48.67
2023-03-06T09:17:16.807Z,43.33
2023-03-06T09:19:43.088Z,48.03
2023-03-06T09:22:09.388Z,52.07
2023-03-06T09:24:36.069Z,46.17
2023-03-06T09:27:02.380Z,53.07
2023-03-06T09:29:28.619Z,46.40
2023-03-06T09:31:54.815Z,48.23
2023-03-06T09:34:21.599Z,48.27
2023-03-06T09:36:56.661Z,49.40
2023-03-06T09:39:24.501Z,49.77
2023-03-06T09:41:51.125Z,50.73
2023-03-06T09:44:19.959Z,48.30
2023-03-06T09:46:58.414Z,52.97
2023-03-06T09:49:42.736Z,49.30
2023-03-06T09:52:23.146Z,52.80
2023-03-06T09:54:53.353Z,45.40
2023-03-06T09:57:22.826Z,43.40
2023-03-06T09:59:53.427Z,51.10
2023-03-06T10:02:24.704Z,52.03
2023-03-06T10:04:54.412Z,44.13
2023-03-06T10:07:22.912Z,44.27
2023-03-06T10:09:52.125Z,49.47
2023-03-06T10:12:25.054Z,44.03
2023-03-06T10:15:00.303Z,51.93
2023-03-06T10:17:31.265Z,46.97
2023-03-06T10:19:58.774Z,42.03
2023-03-06T10:22:28.373Z,47.17
2023-03-06T10:24:57.199Z,45.53
2023-03-06T10:27:33.785Z,45.60
2023-03-06T10:30:05.969Z,41.53
2023-03-06T10:32:48.276Z,43.43
2023-03-06T10:35:18.852Z,39.07
2023-03-06T10:37:45.092Z,42.00
2023-03-06T10:40:15.829Z,41.73
2023-03-06T10:42:42.041Z,37.97
2023-03-06T10:45:10.504Z,38.20
2023-03-06T10:47:37.702Z,38.00
2023-03-06T10:50:17.136Z,34.10
2023-03-06T10:52:43.909Z,33.50
2023-03-06T10:55:24.857Z,29.50
2023-03-06T10:57:51.091Z,29.10
2023-03-06T11:00:27.396Z,27.33
2023-03-06T11:03:05.561Z,33.07
2023-03-06T11:05:31.911Z,29.40
2023-03-06T11:08:00.059Z,31.33
2023-03-06T11:10:26.822Z,33.57
2023-03-06T11:12:57.913Z,35.80
2023-03-06T11:15:24.618Z,33.47
2023-03-06T11:17:54.945Z,32.30
2023-03-06T11:20:23.007Z,36.57
2023-03-06T11:22:52.257Z,35.37
2023-03-06T11:25:20.920Z,34.03
2023-03-06T11:27:54.307Z,40.17
2023-03-06T11:30:23.820Z,40.70
2023-03-06T11:32:53.212Z,34.03
2023-03-06T11:35:21.913Z,37.17
2023-03-06T11:37:53.142Z,38.23
2023-03-06T11:40:24.351Z,39.40
2023-03-06T11:42:57.053Z,32.80
2023-03-06T11:45:26.306Z,37.97
2023-03-06T11:47:59.379Z,33.57
2023-03-06T11:50:30.888Z,35.03
2023-03-06T11:52:58.875Z,36.43
2023-03-06T11:55:36.505Z,29.83
2023-03-06T11:58:20.680Z,32.83
2023-03-06T12:00:52.699Z,31.50
2023-03-06T12:03:45.255Z,33.47
2023-03-06T12:06:18.294Z,38.23
2023-03-06T12:08:52.265Z,36.33
2023-03-06T12:11:23.097Z,36.90
2023-03-06T12:14:09.525Z,36.10
2023-03-06T12:16:47.346Z,36.87
2023-03-06T12:19:23.367Z,35.03
2023-03-06T12:21:57.669Z,37.40
2023-03-06T12:24:51.990Z,40.10
2023-03-06T12:27:25.366Z,33.80
2023-03-06T12:30:05.019Z,36.57
2023-03-06T12:32:40.651Z,32.33
2023-03-06T12:35:21.747Z,30.93
2023-03-06T12:37:56.967Z,30.60
2023-03-06T12:40:35.576Z,33.33
2023-03-06T12:43:17.807Z,32.90
2023-03-06T12:45:44.482Z,29.77
2023-03-06T12:48:15.856Z,32.73
2023-03-06T12:50:43.714Z,30.93
2023-03-06T12:53:14.097Z,30.77
2023-03-06T12:55:42.202Z,34.80
2023-03-06T12:58:34.801Z,32.40
2023-03-06T13:01:05.114Z,32.07
2023-03-06T13:03:38.534Z,35.13
2023-03-06T13:06:27.746Z,37.83
2023-03-06T13:09:15.090Z,33.00
2023-03-06T13:12:01.879Z,28.77
2023-03-06T13:14:35.835Z,30.87
2023-03-06T13:17:34.713Z,30.97
2023-03-06T13:20:35.375Z,28.43
2023-03-06T13:23:42.232Z,36.50
2023-03-06T13:26:10.260Z,32.37
2023-03-06T13:28:44.330Z,26.80
2023-03-06T13:31:24.887Z,33.80
2023-03-06T13:33:55.426Z,30.77
2023-03-06T13:36:27.463Z,29.10
2023-03-06T13:39:01.467Z,33.03
2023-03-06T13:41:42.672Z,29.83
2023-03-06T13:44:37.070Z,26.23
2023-03-06T13:47:05.722Z,32.10
2023-03-06T13:49:32.744Z,21.33
2023-03-06T13:52:08.522Z,24.27
2023-03-06T13:54:46.819Z,21.93
2023-03-06T13:57:39.617Z,21.87
2023-03-06T14:00:44.969Z,22.03
2023-03-06T14:03:50.338Z,27.47
2023-03-06T14:06:56.030Z,21.50
2023-03-06T14:09:26.699Z,28.93
2023-03-06T14:11:55.893Z,27.73
2023-03-06T14:14:31.165Z,25.00
2023-03-06T14:16:58.140Z,27.67
2023-03-06T14:19:24.472Z,23.63
2023-03-06T14:21:55.316Z,24.13
2023-03-06T14:24:31.193Z,20.77
2023-03-06T14:26:57.570Z,17.07
2023-03-06T14:29:25.144Z,12.77
2023-03-06T14:31:53.197Z,14.70
2023-03-06T14:34:21.248Z,19.90
2023-03-06T14:36:49.810Z,16.80
2023-03-06T14:39:21.180Z,21.97
2023-03-06T14:41:48.225Z,22.63
2023-03-06T14:44:17.223Z,26.10
2023-03-06T14:46:44.006Z,24.17
2023-03-06T14:49:11.746Z,31.80
2023-03-06T14:51:42.058Z,29.77
2023-03-06T14:54:12.934Z,30.30
2023-03-06T14:56:41.211Z,28.23
2023-03-06T14:59:11.768Z,29.40
2023-03-06T15:01:40.791Z,33.87
2023-03-06T15:04:12.602Z,33.83
2023-03-06T15:06:41.095Z,35.80
2023-03-06T15:09:14.071Z,31.53
2023-03-06T15:12:01.728Z,34.93
2023-03-06T15:14:35.012Z,31.47
2023-03-06T15:17:23.678Z,33.00
2023-03-06T15:19:51.173Z,32.53
2023-03-06T15:22:29.589Z,30.13
2023-03-06T15:25:18.487Z,32.87
2023-03-06T15:27:47.976Z,31.00
2023-03-06T15:30:22.552Z,28.60
2023-03-06T15:32:48.846Z,27.07
2023-03-06T15:35:25.995Z,30.17
2023-03-06T15:37:52.500Z,25.97
2023-03-06T15:40:20.455Z,29.27
2023-03-06T15:42:48.692Z,29.30
2023-03-06T15:45:18.070Z,27.87
2023-03-06T15:47:45.810Z,30.97
2023-03-06T15:50:16.279Z,29.43
2023-03-06T15:52:42.541Z,26.03
2023-03-06T15:55:10.876Z,24.17
2023-03-06T15:57:37.422Z,27.83
2023-03-06T16:00:21.622Z,26.50
2023-03-06T16:02:53.672Z,29.90
2023-03-06T16:05:20.822Z,30.50
2023-03-06T16:07:47.921Z,25.77
2023-03-06T16:10:16.098Z,26.37
2023-03-06T16:12:43.211Z,26.20
2023-03-06T16:15:17.099Z,23.83
2023-03-06T16:17:43.310Z,27.03
2023-03-06T16:20:16.729Z,25.20
2023-03-06T16:22:44.098Z,23.80
2023-03-06T16:25:10.862Z,25.57
2023-03-06T16:27:37.216Z,21.37
2023-03-06T16:30:04.035Z,21.80
2023-03-06T16:32:30.483Z,20.13
2023-03-06T16:34:56.828Z,19.63
2023-03-06T16:37:23.746Z,24.97
2023-03-06T16:39:49.981Z,22.40
2023-03-06T16:42:16.864Z,23.33
2023-03-06T16:44:43.136Z,23.83
2023-03-06T16:47:11.152Z,21.13
2023-03-06T16:49:37.382Z,20.20
2023-03-06T16:52:04.069Z,23.70
2023-03-06T16:54:30.942Z,24.87
2023-03-06T16:56:57.184Z,22.67
2023-03-06T16:59:24.149Z,22.97
2023-03-06T17:01:50.323Z,27.90
2023-03-06T17:04:16.803Z,21.13
2023-03-06T17:06:43.018Z,23.07
2023-03-06T17:09:10.023Z,29.13
2023-03-06T17:11:37.686Z,28.00
2023-03-06T17:14:03.918Z,24.60
2023-03-06T17:16:30.194Z,25.10
2023-03-06T17:18:57.372Z,27.60
2023-03-06T17:21:25.786Z,22.20
2023-03-06T17:23:52.133Z,24.50
2023-03-06T17:26:18.642Z,31.30
2023-03-06T17:28:45.787Z,25.53
2023-03-06T17:31:13.800Z,26.20
2023-03-06T17:33:40.269Z,36.33
2023-03-06T17:36:07.394Z,28.37
2023-03-06T17:38:33.600Z,27.67
2023-03-06T17:41:02.494Z,27.83
2023-03-06T17:43:29.024Z,23.53
2023-03-06T17:45:56.319Z,21.07
2023-03-06T17:48:22.496Z,25.57
2023-03-06T17:50:52.894Z,23.90
2023-03-06T17:53:19.224Z,26.40
2023-03-06T17:55:45.597Z,24.87
2023-03-06T17:58:12.443Z,27.63
2023-03-06T18:00:39.463Z,25.40
2023-03-06T18:03:06.304Z,22.17
2023-03-06T18:05:32.590Z,27.40
2023-03-06T18:07:58.790Z,25.53
2023-03-06T18:10:25.045Z,31.83
2023-03-06T18:12:51.377Z,28.10
2023-03-06T18:15:17.740Z,24.60
2023-03-06T18:17:44.169Z,32.90
2023-03-06T18:20:11.870Z,31.10
2023-03-06T18:22:38.056Z,29.63
2023-03-06T18:25:05.357Z,29.27
2023-03-06T18:27:32.448Z,24.97
2023-03-06T18:29:58.755Z,30.23
2023-03-06T18:32:25.158Z,26.13
2023-03-06T18:34:51.593Z,26.23
2023-03-06T18:37:18.534Z,30.20
2023-03-06T18:39:44.863Z,28.37
2023-03-06T18:42:11.100Z,28.67
2023-03-06T18:44:37.843Z,29.00
2023-03-06T18:47:04.625Z,26.73
2023-03-06T18:49:30.858Z,27.10
2023-03-06T18:51:57.032Z,32.40
2023-03-06T18:54:24.527Z,29.23
2023-03-06T18:56:52.479Z,35.23
2023-03-06T18:59:19.447Z,27.43
2023-03-06T19:01:46.688Z,37.00
2023-03-06T19:04:13.236Z,25.60
2023-03-06T19:06:40.171Z,30.70
2023-03-06T19:09:07.024Z,33.33
2023-03-06T19:11:34.313Z,26.57
2023-03-06T19:14:00.675Z,25.93
2023-03-06T19:16:29.319Z,22.80
2023-03-06T19:18:56.488Z,23.67
2023-03-06T19:21:24.027Z,25.00
2023-03-06T19:23:50.239Z,29.30
2023-03-06T19:26:17.832Z,29.00
2023-03-06T19:28:45.592Z,27.83
2023-03-06T19:31:13.313Z,31.33
2023-03-06T19:33:40.515Z,26.77
2023-03-06T19:36:08.783Z,26.50
2023-03-06T19:38:35.063Z,31.03
2023-03-06T19:41:01.548Z,33.17
2023-03-06T19:43:28.428Z,29.00
2023-03-06T19:45:55.869Z,28.87
2023-03-06T19:48:22.871Z,27.73
2023-03-06T19:50:49.585Z,26.23
2023-03-06T19:53:16.084Z,27.80
2023-03-06T19:55:42.803Z,27.87
2023-03-06T19:58:10.369Z,29.50
2023-03-06T20:00:37.354Z,24.77
2023-03-06T20:03:04.682Z,29.30
2023-03-06T20:05:31.194Z,28.17
2023-03-06T20:07:57.867Z,27.37
2023-03-06T20:10:24.126Z,26.80
2023-03-06T20:12:50.275Z,26.10
2023-03-06T20:15:18.218Z,26.70
2023-03-06T20:17:44.423Z,25.67
2023-03-06T20:20:12.630Z,26.20
2023-03-06T20:22:38.942Z,27.37
2023-03-06T20:25:05.814Z,24.50
2023-03-06T20:27:32.249Z,28.50
2023-03-06T20:29:58.636Z,26.33
2023-03-06T20:32:25.123Z,30.93
2023-03-06T20:34:51.441Z,26.10
2023-03-06T20:37:18.456Z,27.93
2023-03-06T20:39:44.693Z,30.67
2023-03-06T20:42:10.856Z,28.47
2023-03-06T20:44:37.291Z,27.00
2023-03-06T20:47:03.548Z,30.40
2023-03-06T20:49:29.872Z,27.23
2023-03-06T20:55:38.774Z,28.77
2023-03-06T20:58:05.117Z,27.47
2023-03-06T21:00:31.707Z,29.10
2023-03-06T21:02:57.878Z,29.73
2023-03-06T21:05:24.188Z,30.23
2023-03-06T21:07:51.817Z,35.83
2023-03-06T21:10:18.223Z,34.33
2023-03-06T21:12:45.151Z,32.20
2023-03-06T21:15:12.200Z,33.20
2023-03-06T21:17:38.399Z,28.20
2023-03-06T21:20:06.237Z,34.33
2023-03-06T21:22:32.700Z,29.73
2023-03-06T21:24:58.868Z,31.03
2023-03-06T21:27:25.320Z,32.87
2023-03-06T21:29:52.192Z,32.60
2023-03-06T21:32:18.519Z,37.23
2023-03-06T21:34:44.708Z,34.30
2023-03-06T21:37:10.964Z,34.87
2023-03-06T21:39:37.727Z,38.53
2023-03-06T21:42:04.427Z,36.87
2023-03-06T21:44:31.086Z,32.80
2023-03-06T21:46:58.057Z,37.17
2023-03-06T21:49:25.375Z,43.30
2023-03-06T21:51:51.889Z,37.10
2023-03-06T21:54:18.232Z,37.80
2023-03-06T21:56:44.458Z,35.53
2023-03-06T21:59:10.674Z,39.63
2023-03-06T22:01:36.852Z,38.40
2023-03-06T22:04:03.932Z,40.37
2023-03-06T22:06:30.813Z,43.03
2023-03-06T22:08:58.150Z,39.50
2023-03-06T22:11:25.678Z,39.80
2023-03-06T22:13:52.664Z,40.57
2023-03-06T22:16:19.937Z,37.73
2023-03-06T22:18:47.143Z,41.80
2023-03-06T22:21:15.245Z,41.10
2023-03-06T22:23:41.949Z,37.00
2023-03-06T22:26:11.550Z,37.27
2023-03-06T22:28:38.122Z,41.70
2023-03-06T22:31:05.999Z,35.03
2023-03-06T22:33:32.201Z,32.73
2023-03-06T22:36:05.422Z,33.07
2023-03-06T22:38:32.576Z,35.53
2023-03-06T22:40:59.413Z,33.73
2023-03-06T22:43:25.594Z,33.93
2023-03-06T22:45:52.285Z,30.03
2023-03-06T22:48:18.674Z,32.23
2023-03-06T22:50:44.957Z,30.13
2023-03-06T22:53:11.174Z,28.77
2023-03-06T22:55:38.066Z,36.13
2023-03-06T22:58:04.298Z,30.00
2023-03-06T23:00:30.470Z,31.60
2023-03-06T23:02:56.687Z,30.03
2023-03-06T23:05:22.896Z,31.47
2023-03-06T23:07:49.087Z,28.07
2023-03-06T23:10:15.376Z,27.80
2023-03-06T23:12:43.358Z,29.43
2023-03-06T23:15:10.275Z,26.00
2023-03-06T23:17:36.603Z,27.50
2023-03-06T23:20:05.428Z,25.13
2023-03-06T23:22:32.067Z,27.50
2023-03-06T23:24:58.666Z,26.97
2023-03-06T23:27:24.861Z,26.27
2023-03-06T23:29:54.527Z,25.37
2023-03-06T23:32:20.864Z,24.07
2023-03-06T23:34:47.665Z,23.50
2023-03-06T23:37:13.859Z,24.10
2023-03-06T23:39:40.218Z,25.83
2023-03-06T23:42:06.604Z,24.10
2023-03-06T23:44:34.075Z,25.30
2023-03-06T23:47:00.957Z,22.53
2023-03-06T23:49:27.082Z,22.57
2023-03-06T23:51:53.226Z,22.23
2023-03-06T23:54:19.488Z,21.83
2023-03-06T23:56:45.942Z,25.63
2023-03-06T23:59:12.194Z,19.17
